createdAt,value
2023-03-06T00:00:38.439Z,8.48
2023-03-06T00:02:12.280Z,7.40
2023-03-06T00:02:59.331Z,7.78
2023-03-06T00:03:46.364Z,9.00
2023-03-06T00:04:33.314Z,8.30
2023-03-06T00:05:20.363Z,9.40
2023-03-06T00:06:07.717Z,7.47
2023-03-06T00:06:54.992Z,8.55
2023-03-06T00:07:42.612Z,6.82
2023-03-06T00:08:29.965Z,7.57
2023-03-06T00:09:16.940Z,8.73
2023-03-06T00:10:04.346Z,8.10
2023-03-06T00:10:52.379Z,8.75
2023-03-06T00:11:39.332Z,7.80
2023-03-06T00:12:27.921Z,8.18
2023-03-06T00:13:16.645Z,8.60
2023-03-06T00:14:03.701Z,8.38
2023-03-06T00:14:50.668Z,8.13
2023-03-06T00:15:37.679Z,9.60
2023-03-06T00:16:25.175Z,8.75
2023-03-06T00:17:12.272Z,8.25
2023-03-06T00:17:59.841Z,7.90
2023-03-06T00:18:48.030Z,9.60
2023-03-06T00:19:35.120Z,8.18
2023-03-06T00:20:23.165Z,10.75
2023-03-06T00:21:10.271Z,9.40
2023-03-06T00:21:57.572Z,7.87
2023-03-06T00:22:45.849Z,9.18
2023-03-06T00:23:32.945Z,8.05
2023-03-06T00:24:20.127Z,8.80
2023-03-06T00:25:08.580Z,9.60
2023-03-06T00:25:55.620Z,9.95
2023-03-06T00:26:43.461Z,8.38
2023-03-06T00:27:31.534Z,8.23
2023-03-06T00:28:18.560Z,7.62
2023-03-06T00:29:05.807Z,9.00
2023-03-06T00:29:56.892Z,8.45
2023-03-06T00:30:44.801Z,8.73
2023-03-06T00:31:31.849Z,9.30
2023-03-06T00:32:18.871Z,9.18
2023-03-06T00:33:06.049Z,8.45
2023-03-06T00:33:53.098Z,8.38
2023-03-06T00:34:40.165Z,7.90
2023-03-06T00:35:27.219Z,7.70
2023-03-06T00:36:14.241Z,9.32
2023-03-06T00:37:01.297Z,8.98
2023-03-06T00:37:48.565Z,7.40
2023-03-06T00:38:37.440Z,8.52
2023-03-06T00:39:24.667Z,6.47
2023-03-06T00:40:14.955Z,8.27
2023-03-06T00:41:12.494Z,9.32
2023-03-06T00:41:59.516Z,9.35
2023-03-06T00:42:46.969Z,8.05
2023-03-06T00:43:33.966Z,7.95
2023-03-06T00:44:21.046Z,8.80
2023-03-06T00:45:09.254Z,9.68
2023-03-06T00:45:56.366Z,7.60
2023-03-06T00:46:43.604Z,12.85
2023-03-06T00:47:30.594Z,8.52
2023-03-06T00:48:17.597Z,7.40
2023-03-06T00:49:04.614Z,8.30
2023-03-06T00:49:51.709Z,8.60
2023-03-06T00:50:38.710Z,8.27
2023-03-06T00:51:25.804Z,8.65
2023-03-06T00:52:13.677Z,9.85
2023-03-06T00:53:00.698Z,9.13
2023-03-06T00:53:48.318Z,7.65
2023-03-06T00:54:35.334Z,10.75
2023-03-06T00:55:22.410Z,8.57
2023-03-06T00:56:09.491Z,9.13
2023-03-06T00:56:56.644Z,7.82
2023-03-06T00:57:43.703Z,9.80
2023-03-06T00:58:30.642Z,8.88
2023-03-06T00:59:17.651Z,8.45
2023-03-06T01:00:06.128Z,8.55
2023-03-06T01:00:53.677Z,8.25
2023-03-06T01:01:40.794Z,7.45
2023-03-06T01:02:28.041Z,7.40
2023-03-06T01:03:15.108Z,6.95
2023-03-06T01:04:02.197Z,7.32
2023-03-06T01:04:49.207Z,8.80
2023-03-06T01:05:37.868Z,8.30
2023-03-06T01:06:25.040Z,8.48
2023-03-06T01:07:12.148Z,8.13
2023-03-06T01:07:59.196Z,8.48
2023-03-06T01:08:46.426Z,7.50
2023-03-06T01:09:33.356Z,9.13
2023-03-06T01:10:20.738Z,8.98
2023-03-06T01:11:07.673Z,7.32
2023-03-06T01:11:54.804Z,7.47
2023-03-06T01:12:41.846Z,6.78
2023-03-06T01:13:29.052Z,9.18
2023-03-06T01:14:16.072Z,7.65
2023-03-06T01:15:03.569Z,9.98
2023-03-06T01:15:50.624Z,8.75
2023-03-06T01:16:37.611Z,11.10
2023-03-06T01:17:24.655Z,10.93
2023-03-06T01:18:11.729Z,8.93
2023-03-06T01:18:58.983Z,10.05
2023-03-06T01:19:46.094Z,8.63
2023-03-06T01:20:33.111Z,8.10
2023-03-06T01:21:20.341Z,8.63
2023-03-06T01:22:07.366Z,8.15
2023-03-06T01:22:55.807Z,8.05
2023-03-06T01:23:43.256Z,9.63
2023-03-06T01:24:30.198Z,8.07
2023-03-06T01:25:17.398Z,8.32
2023-03-06T01:26:04.791Z,9.05
2023-03-06T01:26:52.072Z,10.57
2023-03-06T01:27:39.091Z,9.55
2023-03-06T01:28:26.148Z,7.62
2023-03-06T01:29:13.149Z,8.25
2023-03-06T01:30:00.317Z,8.00
2023-03-06T01:30:47.329Z,9.02
2023-03-06T01:31:34.419Z,8.20
2023-03-06T01:32:22.265Z,10.65
2023-03-06T01:33:09.380Z,8.32
2023-03-06T01:33:56.319Z,7.90
2023-03-06T01:34:43.357Z,10.13
2023-03-06T01:35:30.353Z,8.40
2023-03-06T01:36:17.433Z,7.85
2023-03-06T01:37:04.412Z,9.95
2023-03-06T01:37:51.453Z,8.60
2023-03-06T01:38:38.887Z,7.20
2023-03-06T01:39:25.918Z,9.82
2023-03-06T01:40:13.614Z,8.48
2023-03-06T01:41:01.681Z,7.62
2023-03-06T01:41:48.691Z,7.78
2023-03-06T01:42:35.748Z,9.52
2023-03-06T01:43:28.167Z,9.38
2023-03-06T01:44:15.459Z,10.43
2023-03-06T01:45:13.201Z,7.68
2023-03-06T01:46:39.074Z,7.75
2023-03-06T01:47:26.205Z,8.90
2023-03-06T01:48:13.211Z,11.25
2023-03-06T01:49:13.680Z,6.90
2023-03-06T01:50:04.058Z,8.57
2023-03-06T01:50:51.765Z,9.20
2023-03-06T01:51:51.798Z,7.78
2023-03-06T01:52:58.897Z,9.98
2023-03-06T01:53:46.643Z,8.00
2023-03-06T01:54:37.934Z,7.43
2023-03-06T01:55:33.901Z,7.90
2023-03-06T01:56:21.276Z,9.45
2023-03-06T01:57:15.484Z,9.57
2023-03-06T01:58:06.169Z,10.05
2023-03-06T01:59:41.177Z,9.57
2023-03-06T02:00:29.252Z,9.07
2023-03-06T02:01:16.629Z,9.27
2023-03-06T02:02:04.601Z,8.93
2023-03-06T02:02:57.679Z,9.70
2023-03-06T02:03:47.548Z,8.68
2023-03-06T02:04:35.857Z,7.87
2023-03-06T02:05:22.972Z,9.98
2023-03-06T02:06:10.018Z,9.13
2023-03-06T02:07:02.274Z,10.40
2023-03-06T02:07:50.876Z,10.40
2023-03-06T02:08:37.829Z,8.18
2023-03-06T02:09:26.322Z,10.65
2023-03-06T02:10:13.606Z,11.05
2023-03-06T02:11:17.325Z,10.88
2023-03-06T02:12:12.243Z,10.73
2023-03-06T02:12:59.353Z,9.38
2023-03-06T02:13:46.974Z,11.15
2023-03-06T02:14:33.998Z,7.03
2023-03-06T02:15:23.039Z,10.13
2023-03-06T02:16:11.120Z,8.55
2023-03-06T02:16:58.235Z,7.53
2023-03-06T02:17:46.622Z,8.60
2023-03-06T02:18:34.680Z,8.85
2023-03-06T02:19:33.592Z,8.82
2023-03-06T02:20:32.101Z,6.68
2023-03-06T02:21:24.135Z,9.13
2023-03-06T02:22:11.255Z,9.45
2023-03-06T02:23:11.772Z,8.00
2023-03-06T02:24:17.369Z,8.90
2023-03-06T02:25:30.348Z,8.98
2023-03-06T02:26:17.543Z,8.85
2023-03-06T02:27:06.001Z,9.35
2023-03-06T02:27:53.003Z,7.40
2023-03-06T02:28:40.312Z,9.20
2023-03-06T02:29:29.198Z,7.68
2023-03-06T02:30:17.606Z,8.57
2023-03-06T02:31:04.702Z,8.60
2023-03-06T02:31:51.823Z,7.60
2023-03-06T02:32:38.851Z,9.55
2023-03-06T02:33:28.900Z,8.50
2023-03-06T02:34:15.772Z,9.80
2023-03-06T02:35:02.772Z,9.85
2023-03-06T02:36:07.280Z,8.98
2023-03-06T02:37:09.043Z,9.18
2023-03-06T02:37:58.116Z,9.52
2023-03-06T02:38:49.372Z,8.18
2023-03-06T02:39:41.121Z,11.10
2023-03-06T02:40:28.435Z,9.88
2023-03-06T02:41:16.252Z,8.27
2023-03-06T02:42:03.282Z,10.63
2023-03-06T02:42:56.730Z,8.82
2023-03-06T02:43:45.986Z,10.05
2023-03-06T02:44:34.239Z,7.65
2023-03-06T02:45:26.295Z,9.02
2023-03-06T02:46:13.483Z,11.45
2023-03-06T02:47:00.734Z,9.57
2023-03-06T02:47:47.727Z,9.35
2023-03-06T02:48:34.960Z,7.70
2023-03-06T02:49:21.864Z,7.78
2023-03-06T02:50:10.284Z,8.55
2023-03-06T02:50:57.469Z,9.20
2023-03-06T02:51:44.877Z,11.63
2023-03-06T02:52:31.842Z,7.93
2023-03-06T02:53:20.723Z,11.00
2023-03-06T02:54:07.730Z,10.82
2023-03-06T02:54:54.715Z,8.63
2023-03-06T02:55:41.790Z,8.38
2023-03-06T02:56:28.714Z,8.82
2023-03-06T02:57:15.797Z,8.32
2023-03-06T02:58:03.830Z,9.88
2023-03-06T02:58:50.837Z,10.00
2023-03-06T02:59:37.886Z,9.35
2023-03-06T03:00:25.008Z,9.35
2023-03-06T03:01:12.077Z,10.90
2023-03-06T03:01:59.275Z,9.40
2023-03-06T03:02:46.203Z,10.63
2023-03-06T03:03:33.669Z,8.73
2023-03-06T03:04:20.754Z,8.57
2023-03-06T03:05:08.170Z,11.00
2023-03-06T03:05:55.187Z,11.38
2023-03-06T03:06:42.177Z,9.00
2023-03-06T03:07:29.120Z,11.50
2023-03-06T03:08:16.375Z,10.52
2023-03-06T03:09:03.511Z,9.93
2023-03-06T03:09:50.590Z,11.93
2023-03-06T03:10:37.592Z,9.18
2023-03-06T03:11:24.646Z,9.95
2023-03-06T03:12:11.591Z,11.18
2023-03-06T03:12:58.951Z,12.93
2023-03-06T03:13:45.910Z,14.25
2023-03-06T03:14:33.010Z,12.63
2023-03-06T03:15:20.001Z,12.73
2023-03-06T03:16:09.378Z,9.98
2023-03-06T03:16:56.426Z,8.43
2023-03-06T03:17:43.832Z,11.63
2023-03-06T03:18:30.920Z,10.30
2023-03-06T03:19:17.971Z,10.07
2023-03-06T03:20:06.997Z,10.05
2023-03-06T03:20:54.424Z,10.05
2023-03-06T03:21:41.815Z,10.10
2023-03-06T03:22:28.885Z,9.80
2023-03-06T03:23:15.835Z,11.27
2023-03-06T03:24:02.802Z,10.45
2023-03-06T03:24:50.165Z,12.02
2023-03-06T03:25:37.276Z,11.02
2023-03-06T03:26:24.238Z,11.12
2023-03-06T03:27:11.615Z,12.32
2023-03-06T03:27:58.634Z,12.27
2023-03-06T03:28:45.841Z,12.93
2023-03-06T03:29:33.062Z,9.80
2023-03-06T03:30:20.238Z,11.57
2023-03-06T03:31:09.035Z,10.07
2023-03-06T03:31:56.188Z,11.38
2023-03-06T03:32:43.449Z,9.88
2023-03-06T03:33:30.555Z,11.18
2023-03-06T03:34:19.167Z,13.57
2023-03-06T03:35:08.021Z,11.73
2023-03-06T03:35:59.203Z,9.63
2023-03-06T03:36:47.041Z,13.62
2023-03-06T03:37:35.124Z,10.35
2023-03-06T03:38:22.174Z,12.15
2023-03-06T03:39:09.299Z,10.23
2023-03-06T03:39:57.847Z,11.15
2023-03-06T03:40:44.905Z,10.05
2023-03-06T03:41:34.360Z,12.50
2023-03-06T03:42:21.391Z,11.25
2023-03-06T03:43:08.286Z,15.15
2023-03-06T03:43:55.342Z,13.13
2023-03-06T03:44:42.368Z,11.43
2023-03-06T03:45:29.321Z,12.48
2023-03-06T03:46:16.301Z,11.80
2023-03-06T03:47:03.339Z,11.73
2023-03-06T03:47:50.398Z,9.10
2023-03-06T03:48:37.354Z,11.52
2023-03-06T03:49:24.421Z,12.43
2023-03-06T03:50:12.047Z,12.18
2023-03-06T03:51:08.929Z,11.70
2023-03-06T03:51:55.980Z,10.98
2023-03-06T03:52:42.990Z,10.27
2023-03-06T03:53:30.091Z,13.57
2023-03-06T03:54:17.308Z,11.63
2023-03-06T03:55:05.385Z,10.30
2023-03-06T03:55:52.477Z,11.45
2023-03-06T03:56:40.950Z,10.57
2023-03-06T03:57:27.925Z,10.32
2023-03-06T03:58:14.795Z,12.85
2023-03-06T03:59:01.848Z,12.10
2023-03-06T03:59:48.936Z,14.05
2023-03-06T04:00:35.876Z,11.95
2023-03-06T04:01:22.978Z,10.38
2023-03-06T04:02:09.943Z,10.55
2023-03-06T04:02:57.084Z,12.82
2023-03-06T04:03:44.157Z,10.27
2023-03-06T04:04:31.318Z,8.60
2023-03-06T04:05:18.720Z,14.02
2023-03-06T04:06:06.002Z,11.98
2023-03-06T04:06:52.966Z,11.32
2023-03-06T04:07:39.917Z,11.20
2023-03-06T04:08:27.577Z,11.70
2023-03-06T04:09:14.634Z,11.27
2023-03-06T04:10:01.688Z,11.90
2023-03-06T04:10:48.681Z,11.12
2023-03-06T04:11:35.732Z,10.05
2023-03-06T04:12:22.737Z,10.73
2023-03-06T04:13:10.260Z,9.52
2023-03-06T04:13:57.625Z,13.43
2023-03-06T04:14:44.726Z,11.57
2023-03-06T04:15:32.437Z,13.77
2023-03-06T04:16:19.510Z,12.98
2023-03-06T04:17:06.504Z,11.48
2023-03-06T04:17:53.520Z,14.82
2023-03-06T04:18:40.605Z,11.07
2023-03-06T04:19:28.056Z,10.50
2023-03-06T04:20:15.193Z,12.00
2023-03-06T04:21:02.308Z,13.15
2023-03-06T04:21:49.414Z,14.27
2023-03-06T04:22:36.394Z,10.52
2023-03-06T04:23:24.564Z,13.88
2023-03-06T04:24:11.586Z,12.82
2023-03-06T04:24:58.505Z,11.73
2023-03-06T04:25:46.234Z,11.45
2023-03-06T04:26:33.365Z,11.63
2023-03-06T04:27:20.360Z,13.93
2023-03-06T04:28:07.699Z,11.50
2023-03-06T04:28:56.384Z,12.88
2023-03-06T04:29:43.569Z,13.15
2023-03-06T04:30:30.727Z,14.07
2023-03-06T04:31:17.748Z,11.00
2023-03-06T04:32:05.099Z,13.93
2023-03-06T04:32:52.148Z,11.57
2023-03-06T04:33:39.456Z,13.93
2023-03-06T04:34:26.489Z,12.50
2023-03-06T04:35:13.519Z,12.10
2023-03-06T04:36:00.455Z,11.50
2023-03-06T04:36:47.676Z,14.32
2023-03-06T04:37:34.788Z,12.55
2023-03-06T04:38:21.822Z,10.98
2023-03-06T04:39:08.866Z,12.52
2023-03-06T04:39:55.827Z,12.93
2023-03-06T04:40:44.814Z,14.52
2023-03-06T04:41:32.142Z,11.05
2023-03-06T04:42:19.438Z,11.95
2023-03-06T04:43:06.751Z,13.50
2023-03-06T04:43:54.004Z,11.90
2023-03-06T04:44:40.971Z,12.55
2023-03-06T04:45:29.155Z,11.63
2023-03-06T04:46:16.659Z,13.07
2023-03-06T04:47:03.679Z,11.55
2023-03-06T04:47:50.723Z,11.18
2023-03-06T04:48:37.823Z,11.63
2023-03-06T04:49:24.799Z,13.38
2023-03-06T04:50:12.538Z,11.95
2023-03-06T04:50:59.494Z,13.15
2023-03-06T04:51:46.478Z,14.10
2023-03-06T04:52:33.917Z,14.10
2023-03-06T04:53:22.017Z,13.55
2023-03-06T04:54:09.025Z,13.82
2023-03-06T04:54:56.168Z,12.68
2023-03-06T04:55:43.222Z,10.63
2023-03-06T04:56:30.890Z,11.60
2023-03-06T04:57:18.005Z,11.57
2023-03-06T04:58:05.040Z,12.10
2023-03-06T04:58:52.103Z,12.77
2023-03-06T04:59:39.330Z,10.55
2023-03-06T05:00:36.478Z,11.98
2023-03-06T05:01:23.512Z,11.77
2023-03-06T05:02:10.547Z,11.12
2023-03-06T05:03:01.803Z,14.27
2023-03-06T05:03:50.021Z,10.93
2023-03-06T05:04:37.068Z,12.63
2023-03-06T05:05:24.148Z,12.15
2023-03-06T05:06:11.197Z,11.10
2023-03-06T05:06:58.189Z,12.13
2023-03-06T05:07:45.493Z,12.88
2023-03-06T05:08:32.521Z,12.75
2023-03-06T05:09:19.459Z,12.18
2023-03-06T05:10:07.268Z,11.20
2023-03-06T05:10:57.063Z,9.55
2023-03-06T05:11:43.992Z,13.27
2023-03-06T05:12:31.195Z,11.10
2023-03-06T05:13:18.243Z,13.10
2023-03-06T05:14:05.256Z,10.48
2023-03-06T05:14:52.434Z,11.18
2023-03-06T05:15:42.356Z,10.95
2023-03-06T05:16:29.449Z,9.95
2023-03-06T05:17:16.419Z,11.15
2023-03-06T05:18:03.698Z,11.18
2023-03-06T05:18:50.881Z,14.77
2023-03-06T05:19:38.006Z,12.60
2023-03-06T05:20:25.184Z,10.20
2023-03-06T05:21:12.393Z,13.80
2023-03-06T05:21:59.485Z,11.82
2023-03-06T05:22:46.501Z,15.10
2023-03-06T05:23:36.998Z,12.52
2023-03-06T05:24:24.055Z,11.32
2023-03-06T05:25:11.500Z,11.38
2023-03-06T05:25:58.732Z,10.40
2023-03-06T05:26:45.698Z,11.63
2023-03-06T05:27:32.822Z,13.45
2023-03-06T05:28:19.927Z,11.48
2023-03-06T05:29:07.242Z,10.75
2023-03-06T05:29:54.879Z,11.57
2023-03-06T05:30:41.844Z,10.00
2023-03-06T05:31:29.130Z,12.60
2023-03-06T05:32:17.250Z,12.13
2023-03-06T05:33:04.458Z,9.73
2023-03-06T05:33:51.830Z,13.43
2023-03-06T05:34:40.043Z,12.27
2023-03-06T05:35:27.227Z,10.30
2023-03-06T05:36:14.685Z,13.68
2023-03-06T05:37:02.097Z,12.45
2023-03-06T05:37:49.145Z,12.30
2023-03-06T05:38:36.333Z,11.40
2023-03-06T05:39:23.428Z,12.50
2023-03-06T05:40:11.522Z,13.43
2023-03-06T05:40:58.559Z,14.68
2023-03-06T05:41:45.603Z,12.30
2023-03-06T05:42:32.569Z,13.77
2023-03-06T05:43:20.020Z,13.18
2023-03-06T05:44:07.287Z,14.52
2023-03-06T05:44:54.324Z,12.98
2023-03-06T05:45:41.423Z,12.23
2023-03-06T05:46:28.424Z,14.25
2023-03-06T05:47:15.436Z,12.55
2023-03-06T05:48:02.689Z,12.75
2023-03-06T05:48:50.634Z,11.90
2023-03-06T05:49:38.085Z,11.73
2023-03-06T05:50:25.216Z,12.23
2023-03-06T05:51:12.333Z,12.65
2023-03-06T05:51:59.412Z,10.90
2023-03-06T05:52:46.424Z,11.20
2023-03-06T05:53:33.714Z,13.65
2023-03-06T05:54:21.535Z,12.60
2023-03-06T05:55:10.574Z,12.55
2023-03-06T05:55:59.160Z,13.02
2023-03-06T05:56:46.186Z,11.85
2023-03-06T05:57:33.251Z,12.88
2023-03-06T05:58:20.318Z,12.05
2023-03-06T05:59:07.367Z,11.70
2023-03-06T05:59:54.496Z,12.63
2023-03-06T06:00:41.672Z,14.18
2023-03-06T06:01:28.789Z,11.48
2023-03-06T06:02:16.556Z,12.57
2023-03-06T06:03:05.033Z,11.35
2023-03-06T06:03:52.419Z,16.67
2023-03-06T06:04:39.483Z,12.93
2023-03-06T06:05:26.473Z,10.63
2023-03-06T06:06:14.849Z,11.75
2023-03-06T06:07:01.930Z,12.75
2023-03-06T06:07:48.989Z,14.50
2023-03-06T06:08:36.010Z,12.65
2023-03-06T06:09:24.242Z,11.23
2023-03-06T06:10:12.326Z,11.63
2023-03-06T06:10:59.354Z,11.88
2023-03-06T06:11:46.488Z,13.75
2023-03-06T06:12:33.784Z,12.52
2023-03-06T06:13:20.740Z,10.95
2023-03-06T06:14:07.696Z,12.52
2023-03-06T06:14:54.818Z,12.52
2023-03-06T06:15:41.940Z,11.82
2023-03-06T06:16:28.955Z,11.18
2023-03-06T06:17:16.969Z,11.27
2023-03-06T06:18:04.161Z,11.40
2023-03-06T06:18:51.147Z,12.98
2023-03-06T06:19:38.456Z,14.32
2023-03-06T06:21:14.799Z,12.45
2023-03-06T06:22:04.984Z,15.45
2023-03-06T06:22:51.994Z,14.40
2023-03-06T06:23:38.913Z,13.70
2023-03-06T06:24:27.289Z,14.35
2023-03-06T06:25:14.361Z,13.73
2023-03-06T06:26:05.684Z,11.27
2023-03-06T06:26:54.954Z,11.48
2023-03-06T06:27:42.074Z,12.50
2023-03-06T06:28:29.888Z,12.93
2023-03-06T06:29:17.042Z,14.63
2023-03-06T06:30:05.711Z,14.02
2023-03-06T06:30:53.127Z,11.98
2023-03-06T06:31:40.553Z,11.20
2023-03-06T06:32:27.741Z,11.73
2023-03-06T06:33:14.722Z,14.80
2023-03-06T06:34:01.674Z,11.15
2023-03-06T06:34:48.659Z,12.40
2023-03-06T06:35:37.427Z,11.85
2023-03-06T06:36:24.499Z,11.07
2023-03-06T06:37:11.960Z,13.35
2023-03-06T06:37:59.073Z,10.68
2023-03-06T06:38:46.760Z,11.77
2023-03-06T06:39:34.654Z,12.75
2023-03-06T06:40:24.521Z,11.10
2023-03-06T06:41:38.897Z,12.82
2023-03-06T06:42:31.990Z,12.25
2023-03-06T06:43:22.204Z,12.23
2023-03-06T06:44:14.666Z,10.85
2023-03-06T06:45:01.673Z,12.32
2023-03-06T06:45:49.623Z,12.43
2023-03-06T06:47:20.929Z,13.00
2023-03-06T06:47:44.805Z,11.57
2023-03-06T06:48:31.943Z,12.37
2023-03-06T06:49:19.042Z,11.45
2023-03-06T06:50:06.693Z,13.70
2023-03-06T06:51:00.332Z,12.68
2023-03-06T06:51:47.511Z,11.00
2023-03-06T06:52:34.703Z,13.82
2023-03-06T06:53:21.706Z,11.90
2023-03-06T06:54:08.981Z,13.45
2023-03-06T06:54:56.058Z,13.57
2023-03-06T06:55:43.308Z,12.85
2023-03-06T06:56:30.429Z,12.90
2023-03-06T06:57:17.673Z,13.07
2023-03-06T06:58:04.807Z,12.48
2023-03-06T06:59:01.352Z,12.75
2023-03-06T06:59:57.360Z,12.88
2023-03-06T07:00:44.478Z,11.63
2023-03-06T07:01:31.567Z,15.38
2023-03-06T07:02:18.791Z,13.00
2023-03-06T07:03:05.834Z,12.43
2023-03-06T07:03:53.056Z,14.05
2023-03-06T07:04:52.214Z,15.45
2023-03-06T07:05:43.523Z,16.20
2023-03-06T07:06:30.758Z,13.95
2023-03-06T07:07:17.844Z,15.65
2023-03-06T07:08:04.876Z,12.57
2023-03-06T07:08:52.168Z,11.77
2023-03-06T07:09:40.395Z,10.85
2023-03-06T07:10:27.356Z,12.37
2023-03-06T07:11:17.754Z,13.23
2023-03-06T07:12:04.889Z,11.23
2023-03-06T07:12:51.767Z,13.50
2023-03-06T07:13:38.853Z,14.75
2023-03-06T07:14:25.916Z,13.75
2023-03-06T07:15:15.274Z,11.60
2023-03-06T07:16:02.512Z,15.93
2023-03-06T07:16:49.495Z,12.20
2023-03-06T07:17:36.502Z,13.85
2023-03-06T07:18:23.393Z,13.23
2023-03-06T07:19:10.335Z,14.93
2023-03-06T07:19:57.373Z,14.35
2023-03-06T07:20:44.263Z,13.55
2023-03-06T07:21:31.250Z,13.18
2023-03-06T07:22:18.148Z,13.02
2023-03-06T07:23:08.614Z,13.60
2023-03-06T07:23:57.697Z,14.48
2023-03-06T07:24:44.647Z,13.27
2023-03-06T07:25:31.586Z,13.48
2023-03-06T07:26:18.482Z,16.10
2023-03-06T07:27:05.437Z,15.02
2023-03-06T07:27:54.591Z,14.57
2023-03-06T07:28:52.438Z,14.93
2023-03-06T07:29:39.698Z,16.35
2023-03-06T07:30:26.558Z,15.23
2023-03-06T07:31:13.528Z,13.10
2023-03-06T07:32:00.643Z,14.70
2023-03-06T07:32:47.650Z,15.77
2023-03-06T07:33:34.570Z,15.95
2023-03-06T07:34:21.493Z,15.02
2023-03-06T07:35:19.817Z,13.32
2023-03-06T07:36:12.744Z,16.65
2023-03-06T07:36:59.795Z,14.82
2023-03-06T07:37:46.779Z,16.77
2023-03-06T07:38:33.872Z,14.50
2023-03-06T07:39:20.809Z,14.55
2023-03-06T07:40:09.718Z,14.43
2023-03-06T07:40:56.551Z,13.43
2023-03-06T07:41:43.443Z,19.08
2023-03-06T07:42:30.318Z,15.70
2023-03-06T07:43:19.610Z,15.23
2023-03-06T07:44:07.654Z,14.00
2023-03-06T07:44:54.559Z,14.45
2023-03-06T07:45:43.478Z,15.07
2023-03-06T07:46:30.491Z,15.85
2023-03-06T07:47:17.396Z,15.68
2023-03-06T07:48:05.622Z,16.15
2023-03-06T07:48:53.412Z,17.08
2023-03-06T07:49:40.346Z,15.38
2023-03-06T07:50:27.341Z,14.95
2023-03-06T07:51:16.724Z,16.35
2023-03-06T07:52:03.799Z,15.10
2023-03-06T07:52:51.450Z,15.05
2023-03-06T07:53:38.400Z,13.88
2023-03-06T07:54:25.517Z,13.90
2023-03-06T07:55:13.042Z,15.77
2023-03-06T07:56:00.134Z,12.90
2023-03-06T07:56:50.704Z,16.48
2023-03-06T07:57:38.692Z,15.68
2023-03-06T07:58:26.442Z,14.90
2023-03-06T07:59:13.330Z,12.32
2023-03-06T08:00:00.259Z,13.10
2023-03-06T08:00:47.416Z,13.13
2023-03-06T08:01:34.363Z,14.55
2023-03-06T08:02:23.362Z,12.37
2023-03-06T08:03:12.046Z,14.60
2023-03-06T08:03:59.644Z,15.30
2023-03-06T08:04:53.681Z,13.62
2023-03-06T08:05:40.964Z,13.20
2023-03-06T08:06:28.598Z,16.67
2023-03-06T08:07:15.532Z,14.55
2023-03-06T08:08:02.442Z,11.98
2023-03-06T08:08:50.578Z,10.52
2023-03-06T08:09:37.444Z,13.05
2023-03-06T08:10:24.315Z,14.00
2023-03-06T08:11:12.890Z,13.65
2023-03-06T08:11:59.784Z,10.93
2023-03-06T08:12:46.724Z,11.32
2023-03-06T08:13:35.756Z,14.57
2023-03-06T08:14:22.796Z,11.98
2023-03-06T08:15:11.613Z,15.38
2023-03-06T08:16:00.001Z,12.75
2023-03-06T08:16:47.038Z,14.93
2023-03-06T08:17:33.926Z,12.75
2023-03-06T08:18:20.793Z,12.32
2023-03-06T08:19:07.898Z,13.95
2023-03-06T08:19:54.783Z,14.87
2023-03-06T08:20:41.670Z,13.82
2023-03-06T08:21:29.355Z,14.50
2023-03-06T08:22:16.257Z,14.57
2023-03-06T08:23:03.093Z,14.82
2023-03-06T08:23:50.818Z,13.05
2023-03-06T08:24:38.056Z,12.93
2023-03-06T08:25:25.857Z,11.77
2023-03-06T08:26:15.743Z,13.82
2023-03-06T08:27:02.754Z,13.73
2023-03-06T08:27:49.774Z,14.15
2023-03-06T08:28:36.653Z,12.45
2023-03-06T08:29:23.516Z,14.05
2023-03-06T08:30:11.062Z,12.70
2023-03-06T08:30:58.681Z,12.65
2023-03-06T08:31:46.612Z,13.77
2023-03-06T08:32:38.762Z,14.23
2023-03-06T08:33:25.831Z,11.82
2023-03-06T08:34:15.404Z,12.57
2023-03-06T08:35:04.086Z,12.10
2023-03-06T08:35:51.442Z,13.13
2023-03-06T08:36:38.805Z,13.70
2023-03-06T08:37:25.816Z,16.25
2023-03-06T08:38:12.701Z,15.40
2023-03-06T08:38:59.977Z,13.52
2023-03-06T08:39:46.897Z,12.63
2023-03-06T08:40:34.020Z,14.98
2023-03-06T08:41:21.615Z,13.60
2023-03-06T08:42:10.476Z,14.30
2023-03-06T08:42:57.897Z,16.27
2023-03-06T08:43:44.912Z,16.85
2023-03-06T08:44:31.842Z,12.77
2023-03-06T08:45:18.723Z,12.55
2023-03-06T08:46:05.751Z,11.05
2023-03-06T08:46:54.827Z,13.60
2023-03-06T08:47:41.733Z,14.02
2023-03-06T08:48:28.638Z,12.77
2023-03-06T08:49:15.608Z,14.13
2023-03-06T08:50:02.555Z,14.82
2023-03-06T08:50:49.654Z,13.85
2023-03-06T08:51:36.633Z,13.15
2023-03-06T08:52:23.509Z,13.10
2023-03-06T08:53:10.881Z,14.63
2023-03-06T08:53:58.290Z,13.45
2023-03-06T08:54:45.206Z,16.37
2023-03-06T08:55:32.050Z,16.27
2023-03-06T08:56:20.273Z,16.70
2023-03-06T08:57:07.206Z,11.45
2023-03-06T08:57:54.572Z,15.52
2023-03-06T08:58:41.409Z,12.37
2023-03-06T08:59:28.281Z,13.55
2023-03-06T09:00:15.605Z,13.40
2023-03-06T09:01:05.532Z,14.40
2023-03-06T09:01:52.601Z,13.55
2023-03-06T09:02:40.035Z,14.38
2023-03-06T09:03:27.082Z,14.73
2023-03-06T09:04:14.237Z,13.68
2023-03-06T09:05:01.635Z,17.42
2023-03-06T09:05:48.757Z,13.88
2023-03-06T09:06:38.760Z,13.32
2023-03-06T09:07:25.806Z,12.77
2023-03-06T09:08:12.761Z,16.58
2023-03-06T09:09:00.017Z,12.43
2023-03-06T09:09:46.974Z,16.50
2023-03-06T09:10:34.411Z,15.15
2023-03-06T09:11:23.029Z,15.48
2023-03-06T09:12:09.912Z,13.20
2023-03-06T09:12:56.935Z,13.43
2023-03-06T09:13:44.198Z,13.98
2023-03-06T09:14:32.995Z,13.68
2023-03-06T09:15:21.159Z,13.73
2023-03-06T09:16:09.799Z,12.82
2023-03-06T09:16:56.754Z,16.15
2023-03-06T09:17:43.790Z,13.65
2023-03-06T09:18:30.850Z,16.00
2023-03-06T09:19:18.034Z,14.48
2023-03-06T09:20:10.560Z,11.90
2023-03-06T09:20:57.600Z,15.05
2023-03-06T09:21:44.610Z,12.55
2023-03-06T09:22:32.321Z,12.70
2023-03-06T09:23:19.251Z,11.70
2023-03-06T09:24:06.421Z,13.07
2023-03-06T09:24:54.286Z,13.32
2023-03-06T09:25:41.197Z,13.70
2023-03-06T09:26:43.331Z,12.68
2023-03-06T09:27:31.945Z,11.65
2023-03-06T09:28:18.828Z,13.70
2023-03-06T09:29:05.654Z,11.65
2023-03-06T09:29:52.470Z,12.25
2023-03-06T09:30:41.235Z,13.25
2023-03-06T09:31:28.597Z,12.77
2023-03-06T09:32:15.528Z,12.65
2023-03-06T09:33:02.468Z,13.88
2023-03-06T09:33:49.392Z,14.43
2023-03-06T09:34:36.294Z,12.37
2023-03-06T09:35:23.359Z,14.20
2023-03-06T09:36:17.314Z,15.55
2023-03-06T09:37:04.255Z,13.13
2023-03-06T09:37:51.154Z,13.62
2023-03-06T09:38:38.023Z,14.35
2023-03-06T09:39:26.387Z,17.12
2023-03-06T09:40:30.906Z,13.27
2023-03-06T09:41:31.147Z,14.68
2023-03-06T09:42:20.799Z,14.48
2023-03-06T09:43:13.834Z,13.35
2023-03-06T09:44:05.179Z,14.27
2023-03-06T09:44:55.513Z,15.15
2023-03-06T09:45:42.536Z,12.20
2023-03-06T09:46:40.617Z,13.57
2023-03-06T09:47:42.777Z,15.63
2023-03-06T09:48:44.538Z,14.80
2023-03-06T09:49:50.519Z,13.95
2023-03-06T09:50:40.173Z,15.10
2023-03-06T09:51:45.413Z,13.68
2023-03-06T09:52:35.317Z,14.30
2023-03-06T09:53:28.413Z,13.88
2023-03-06T09:54:16.256Z,16.37
2023-03-06T09:55:09.850Z,14.57
2023-03-06T09:56:06.525Z,12.65
2023-03-06T09:56:53.474Z,15.50
2023-03-06T09:57:55.329Z,12.30
2023-03-06T09:58:48.304Z,15.13
2023-03-06T09:59:35.303Z,14.87
2023-03-06T10:00:31.274Z,15.98
2023-03-06T10:01:28.226Z,14.10
2023-03-06T10:02:32.179Z,12.20
2023-03-06T10:03:34.312Z,17.80
2023-03-06T10:04:38.534Z,15.40
2023-03-06T10:05:35.958Z,16.12
2023-03-06T10:06:27.204Z,17.00
2023-03-06T10:07:19.316Z,16.85
2023-03-06T10:08:21.934Z,13.98
2023-03-06T10:09:19.307Z,16.27
2023-03-06T10:10:08.490Z,15.68
2023-03-06T10:11:02.172Z,15.20
2023-03-06T10:11:55.199Z,15.90
2023-03-06T10:12:48.510Z,14.52
2023-03-06T10:13:44.516Z,12.73
2023-03-06T10:14:57.111Z,15.35
2023-03-06T10:15:46.603Z,15.77
2023-03-06T10:16:33.682Z,13.85
2023-03-06T10:17:22.771Z,13.57
2023-03-06T10:18:11.297Z,13.35
2023-03-06T10:19:03.619Z,15.18
2023-03-06T10:19:50.998Z,15.80
2023-03-06T10:20:44.491Z,14.75
2023-03-06T10:21:45.871Z,12.13
2023-03-06T10:22:39.086Z,13.88
2023-03-06T10:23:54.889Z,14.35
2023-03-06T10:24:49.562Z,16.00
2023-03-06T10:26:02.240Z,17.10
2023-03-06T10:27:37.836Z,14.43
2023-03-06T10:28:35.430Z,14.23
2023-03-06T10:29:47.554Z,15.50
2023-03-06T10:31:18.058Z,13.10
2023-03-06T10:32:13.310Z,14.15
2023-03-06T10:33:08.098Z,15.25
2023-03-06T10:34:08.337Z,14.45
2023-03-06T10:34:57.855Z,15.32
2023-03-06T10:35:48.930Z,15.35
2023-03-06T10:36:37.910Z,17.00